Aktuální počasí v Česku a ve světě - METAR

Seznam meteostanic umístěných nejčasteji na letišti v ČR a ve světě

Vyhledat místa podle abecedy:
A B C D E F G H I J K L M N O P Q R S T U V W X Y Z

Filtrovat:

ID stanice:
a/nebo
Název místa (fulltext):
 
Místo (ID)Naposledy načteno 
Ústí nad Labem - Kočkov (Usti n/L) 05.03.2021 07:00 UTC Zobrazit data
Místo: Ústí nad Labem - Kočkov
Teplota: 0 °C (pocitová: -9.7 °C)
Vítr: 6 m/s z(e) 20°
Počasí: sněží
Dohlednost: 15 km
Zákl. oblačnosti: 7/8 300 m
Vlhkost: 93%
Ústí nad Orlicí (Usti n/O) 05.03.2021 07:00 UTC Zobrazit data
Místo: Ústí nad Orlicí
Teplota: 0 °C (pocitová: -4.3 °C)
Vítr: 1 m/s z(e) 320°
Počasí: zataženo
Dohlednost: 11 km
Zákl. oblačnosti: 8/8 240 m
Vlhkost: 100%
Ulaanbaatar (ZMUB) 20.02.2019 12:00 UTC Zobrazit METAR
ZMUB 201200Z CAVOK M14/M25 Q1021 NOSIG RMK QFE657.8 33
Uvea Island (NLWW) 05.03.2021 06:00 UTC Zobrazit METAR
NLWW 050600Z AUTO 12007KT 090V150 9999 SCT016/// BKN022/// 27/25 Q1009 TEMPO SHRA SCT025TCU BKN040
Uzhhorod (UKLU) 28.11.2020 09:00 UTC Zobrazit METAR
UKLU 280900Z 8000 OVC012 M00/M01 Q1022 R10/690330 NOSIG
Reklama

Reklama


Počasí na Váš email

Emaily jsou bez reklamy a bez spamu



Odhlásit newsletter



Další české internetové stránky (nejen) o počasí najdete v katalogu TOPlist - weby o počasí nebo vyhledejte na internetu, co jste tu na 🌞 Slunečnu ⛅ zatím nenašli:
⭐ Přidat Slunečno.cz do oblíbených | 🏠 Nastavit Slunečno.cz jako HOMEPAGE

⬆️ Posunout stránku nahoru ⬆️
Reklama